Maria — V7RQ2 — position and weather

sailwx.info

Track history (hours):
 
Tides and Currents Weather Stations Pressure Air Temp Water Temp Dewpoint Dewpoint Depression Visibility Wind Speed Wind Dir Waves Ship Positions

Maria

Last reported at 2018-Jul-27 18:12 UTC. Time now 2018-Aug-16 08:02 UTC.
Position S 29°18' E 031°55'.
Warning: this ship's position is 19 days out of date.

Length 190 m; draft 10.8 m.

Type: Ship. MMSI: 538003561.

Date/timePositionNaut miles runAvg speedWind from/ knotsBaromVisibWave heightAir tempDewpointWater temp
2018-Jul-27 18:12S 29°18' E 031°55'211.9
2018-Jul-27 18:00S 29°20' E 031°53'611.8
2018-Jul-27 17:30S 29°24' E 031°48'611.6
2018-Jul-27 17:00S 29°28' E 031°43'611.7
2018-Jul-27 16:30S 29°32' E 031°38'611.4
2018-Jul-27 16:00S 29°36' E 031°33'611.8
2018-Jul-27 15:30S 29°39' E 031°28'611.9
2018-Jul-27 15:00S 29°43' E 031°23'611.9
2018-Jul-27 14:30S 29°47' E 031°18'611.7
2018-Jul-27 13:59S 29°51' E 031°12'3 6.0
2018-Jul-27 13:30S 29°51' E 031°09'0 0.5
2018-Jul-27 13:00S 29°52' E 031°09'1 2.2
2018-Jul-27 12:29S 29°53' E 031°10'4 8.2
2018-Jul-27 12:00S 29°56' E 031°11'612.2
2018-Jul-27 11:30S 30°02' E 031°10'612.3
2018-Jul-27 11:00S 30°08' E 031°09'712.8
2018-Jul-27 10:28S 30°15' E 031°06'  
Track history (hours):
 
Tides and Currents Weather Stations Pressure Air Temp Water Temp Dewpoint Dewpoint Depression Visibility Wind Speed Wind Dir Waves Ship Positions

Maria

Last reported at 2018-Jul-27 18:12 UTC. Time now 2018-Aug-16 08:02 UTC.
Position S 29°18' E 031°55'.
Warning: this ship's position is 19 days out of date.

Length 190 m; draft 10.8 m.

Type: Ship. MMSI: 538003561.

Date/timePositionNaut miles runAvg speedWind from/ knotsBaromVisibWave heightAir tempDewpointWater temp
2018-Jul-27 18:12S 29°18' E 031°55'211.9
2018-Jul-27 18:00S 29°20' E 031°53'611.8
2018-Jul-27 17:30S 29°24' E 031°48'611.6
2018-Jul-27 17:00S 29°28' E 031°43'611.7
2018-Jul-27 16:30S 29°32' E 031°38'611.4
2018-Jul-27 16:00S 29°36' E 031°33'611.8
2018-Jul-27 15:30S 29°39' E 031°28'611.9
2018-Jul-27 15:00S 29°43' E 031°23'611.9
2018-Jul-27 14:30S 29°47' E 031°18'611.7
2018-Jul-27 13:59S 29°51' E 031°12'3 6.0
2018-Jul-27 13:30S 29°51' E 031°09'0 0.5
2018-Jul-27 13:00S 29°52' E 031°09'1 2.2
2018-Jul-27 12:29S 29°53' E 031°10'4 8.2
2018-Jul-27 12:00S 29°56' E 031°11'612.2
2018-Jul-27 11:30S 30°02' E 031°10'612.3
2018-Jul-27 11:00S 30°08' E 031°09'712.8
2018-Jul-27 10:28S 30°15' E 031°06'  

Dump ship's entire track history